Time;durP1;ratioP1;P1;durP2;ratioP2;P2;SDS_P1;SDS_P2;PMS_P1;PMS_P2;Temp;Humidity;BMP_temperature;BMP_pressure;BME280_temperature;BME280_humidity;BME280_pressure;Samples;Min_cycle;Max_cycle;Signal;HPM_P1;HPM_P2
2023/11/17 00:01:31;;;;;;;6.28;4.53;;;;;;;;;;6263323;28;20531;-69
2023/11/17 00:04:33;;;;;;;9.07;6.30;;;;;;;;;;6263281;28;20052;-69
2023/11/17 00:07:35;;;;;;;8.55;5.82;;;;;;;;;;6262822;28;20106;-69
2023/11/17 00:10:38;;;;;;;10.05;5.57;;;;;;;;;;6261654;28;20524;-68
2023/11/17 00:13:40;;;;;;;8.30;5.43;;;;;;;;;;6262281;28;20044;-69
2023/11/17 00:16:42;;;;;;;8.35;5.65;;;;;;;;;;6262926;28;20033;-69
2023/11/17 00:19:45;;;;;;;10.25;5.97;;;;;;;;;;6259873;28;20051;-69
2023/11/17 00:22:48;;;;;;;8.88;6.30;;;;;;;;;;6257089;28;20081;-69
2023/11/17 00:25:51;;;;;;;10.10;8.25;;;;;;;;;;6261705;28;20057;-69
2023/11/17 00:28:53;;;;;;;9.55;6.38;;;;;;;;;;6260972;28;20041;-68
2023/11/17 00:31:58;;;;;;;8.65;5.60;;;;;;;;;;6262562;28;20037;-69
2023/11/17 00:35:00;;;;;;;9.40;5.60;;;;;;;;;;6262179;28;20087;-69
2023/11/17 00:38:03;;;;;;;11.48;6.53;;;;;;;;;;6262107;28;20048;-69
2023/11/17 00:41:07;;;;;;;7.38;4.80;;;;;;;;;;6262775;28;20145;-68
2023/11/17 00:44:22;;;;;;;9.02;5.90;;;;;;;;;;6262061;28;20049;-69
2023/11/17 00:47:25;;;;;;;8.25;6.03;;;;;;;;;;6260882;28;20275;-69
2023/11/17 00:50:29;;;;;;;11.23;6.65;;;;;;;;;;6261604;28;20618;-69
2023/11/17 00:53:33;;;;;;;12.43;6.18;;;;;;;;;;6261972;28;20045;-68
2023/11/17 00:56:35;;;;;;;11.63;7.18;;;;;;;;;;6261578;28;20045;-69
2023/11/17 00:59:38;;;;;;;8.60;5.88;;;;;;;;;;6260648;28;20037;-69
2023/11/17 01:02:41;;;;;;;10.80;6.18;;;;;;;;;;6260285;28;20135;-70
2023/11/17 01:05:43;;;;;;;9.35;5.82;;;;;;;;;;6257160;28;20044;-69
2023/11/17 01:08:45;;;;;;;25.38;18.88;;;;;;;;;;6260338;28;20130;-69
2023/11/17 01:11:47;;;;;;;14.35;9.32;;;;;;;;;;6261403;28;20160;-69
2023/11/17 01:14:49;;;;;;;12.55;7.10;;;;;;;;;;6249134;28;20057;-67
2023/11/17 01:17:52;;;;;;;10.98;6.38;;;;;;;;;;6261575;28;20060;-68
2023/11/17 01:20:54;;;;;;;8.57;6.50;;;;;;;;;;6256482;28;20045;-68
2023/11/17 01:23:56;;;;;;;11.25;7.15;;;;;;;;;;6261349;28;20047;-68
2023/11/17 01:26:58;;;;;;;11.95;7.38;;;;;;;;;;6260292;28;20147;-67
2023/11/17 01:30:00;;;;;;;11.88;8.02;;;;;;;;;;6260244;28;20047;-69
2023/11/17 01:33:03;;;;;;;14.07;7.57;;;;;;;;;;6260480;28;20049;-68
2023/11/17 01:36:06;;;;;;;13.35;7.55;;;;;;;;;;6259412;28;20063;-69
2023/11/17 01:39:09;;;;;;;16.48;9.15;;;;;;;;;;6252862;28;20041;-69
2023/11/17 01:42:11;;;;;;;11.27;6.75;;;;;;;;;;6258148;28;20044;-68
2023/11/17 01:45:14;;;;;;;10.93;8.45;;;;;;;;;;6242153;28;20048;-69
2023/11/17 01:48:17;;;;;;;11.40;8.13;;;;;;;;;;6260850;28;20769;-69
2023/11/17 01:51:19;;;;;;;14.70;8.75;;;;;;;;;;6259155;28;20555;-69
2023/11/17 01:54:21;;;;;;;15.63;8.95;;;;;;;;;;6260758;28;20076;-68
2023/11/17 01:57:24;;;;;;;16.25;9.93;;;;;;;;;;6256741;28;20622;-68
2023/11/17 02:00:27;;;;;;;15.10;8.95;;;;;;;;;;6255388;28;20040;-68
2023/11/17 02:03:29;;;;;;;20.25;11.48;;;;;;;;;;6253395;28;20037;-68
2023/11/17 02:06:47;;;;;;;14.55;9.80;;;;;;;;;;6257884;28;20053;-68
2023/11/17 02:09:58;;;;;;;16.45;11.18;;;;;;;;;;6258438;28;20040;-68
2023/11/17 02:13:25;;;;;;;16.08;10.55;;;;;;;;;;6259208;28;20071;-68
2023/11/17 02:16:32;;;;;;;13.68;11.02;;;;;;;;;;6242454;28;20049;-68
2023/11/17 02:19:38;;;;;;;15.38;12.45;;;;;;;;;;6258022;28;20706;-69
2023/11/17 02:22:44;;;;;;;19.40;13.85;;;;;;;;;;6240192;28;20788;-68
2023/11/17 02:26:15;;;;;;;17.40;10.90;;;;;;;;;;6258701;28;20051;-68
2023/11/17 02:29:28;;;;;;;17.15;11.13;;;;;;;;;;6252109;28;20059;-68
2023/11/17 02:32:38;;;;;;;22.85;11.65;;;;;;;;;;6259771;28;20049;-68
2023/11/17 02:35:43;;;;;;;16.13;10.07;;;;;;;;;;6242401;28;20135;-68
2023/11/17 02:38:50;;;;;;;;;;;;;;;;;;6255728;28;20713;-68
2023/11/17 02:41:56;;;;;;;15.25;8.88;;;;;;;;;;6239737;28;19925;-69
2023/11/17 02:45:00;;;;;;;15.63;9.05;;;;;;;;;;6259355;28;20052;-68
2023/11/17 02:48:03;;;;;;;15.82;9.93;;;;;;;;;;6261303;28;20056;-68
2023/11/17 02:51:18;;;;;;;14.13;10.48;;;;;;;;;;6261435;28;20053;-69
2023/11/17 02:54:23;;;;;;;16.13;10.00;;;;;;;;;;6278000;28;20080;-68
2023/11/17 02:57:25;;;;;;;12.60;9.68;;;;;;;;;;6251337;28;20068;-69
2023/11/17 03:00:30;;;;;;;12.95;8.55;;;;;;;;;;6262337;28;20135;-68
2023/11/17 03:03:32;;;;;;;14.15;8.60;;;;;;;;;;6255772;28;20063;-68
2023/11/17 03:06:38;;;;;;;13.07;8.88;;;;;;;;;;6259660;28;20064;-69
2023/11/17 03:09:40;;;;;;;15.52;10.63;;;;;;;;;;6253608;28;20059;-68
2023/11/17 03:12:43;;;;;;;16.95;10.45;;;;;;;;;;6260539;28;20470;-68
2023/11/17 03:15:46;;;;;;;15.85;9.48;;;;;;;;;;6264998;28;20047;-68
2023/11/17 03:18:52;;;;;;;15.23;9.88;;;;;;;;;;6261564;28;20395;-68
2023/11/17 03:21:54;;;;;;;14.45;8.75;;;;;;;;;;6259445;28;20055;-68
2023/11/17 03:24:57;;;;;;;13.48;9.18;;;;;;;;;;6264865;28;20198;-68
2023/11/17 03:27:59;;;;;;;11.00;8.00;;;;;;;;;;6263017;28;20512;-68
2023/11/17 03:31:03;;;;;;;12.15;7.88;;;;;;;;;;6261483;28;20040;-68
2023/11/17 03:34:09;;;;;;;10.77;7.45;;;;;;;;;;6263438;28;20073;-68
2023/11/17 03:37:13;;;;;;;10.43;6.97;;;;;;;;;;6264349;28;20566;-68
2023/11/17 03:40:15;;;;;;;9.82;6.90;;;;;;;;;;6290280;28;20636;-68
2023/11/17 03:43:20;;;;;;;10.52;7.07;;;;;;;;;;6263638;28;20109;-68
2023/11/17 03:46:22;;;;;;;9.10;5.78;;;;;;;;;;6245189;28;20075;-69
2023/11/17 03:49:27;;;;;;;7.55;4.63;;;;;;;;;;6261275;28;20051;-68
2023/11/17 03:52:32;;;;;;;10.02;9.15;;;;;;;;;;6263341;28;20848;-69
2023/11/17 03:55:34;;;;;;;7.28;5.30;;;;;;;;;;6285703;28;20523;-69
2023/11/17 03:58:36;;;;;;;7.97;4.10;;;;;;;;;;6262406;28;20076;-73
2023/11/17 04:01:38;;;;;;;6.45;4.35;;;;;;;;;;6263303;28;20040;-69
2023/11/17 04:04:42;;;;;;;5.95;3.95;;;;;;;;;;6262307;28;20482;-69
2023/11/17 04:07:48;;;;;;;3.75;2.35;;;;;;;;;;6263537;28;20571;-69
2023/11/17 04:10:50;;;;;;;4.55;2.65;;;;;;;;;;6261114;28;20131;-69
2023/11/17 04:13:53;;;;;;;3.20;2.80;;;;;;;;;;6259567;28;20175;-69
2023/11/17 04:16:55;;;;;;;9.77;5.13;;;;;;;;;;6256507;28;20131;-69
2023/11/17 04:19:58;;;;;;;3.55;2.25;;;;;;;;;;6257802;28;20053;-67
2023/11/17 04:23:00;;;;;;;6.82;4.93;;;;;;;;;;6261385;28;20627;-69
2023/11/17 04:26:02;;;;;;;3.30;2.05;;;;;;;;;;6261986;28;20052;-69
2023/11/17 04:29:05;;;;;;;3.72;2.40;;;;;;;;;;6259837;28;20045;-69
2023/11/17 04:32:07;;;;;;;3.53;2.15;;;;;;;;;;6260901;28;20048;-69
2023/11/17 04:35:11;;;;;;;3.72;2.47;;;;;;;;;;6254613;28;20044;-68
2023/11/17 04:38:14;;;;;;;2.50;2.05;;;;;;;;;;6262219;28;20198;-69
2023/11/17 04:41:16;;;;;;;2.63;2.28;;;;;;;;;;6226706;28;20045;-69
2023/11/17 04:44:18;;;;;;;2.28;1.67;;;;;;;;;;6254945;28;20051;-68
2023/11/17 04:47:20;;;;;;;3.95;2.78;;;;;;;;;;6261380;28;20060;-69
2023/11/17 04:50:22;;;;;;;3.20;2.90;;;;;;;;;;6256943;28;20061;-69
2023/11/17 04:53:24;;;;;;;3.00;2.53;;;;;;;;;;6260676;28;20087;-68
2023/11/17 04:56:30;;;;;;;3.50;2.20;;;;;;;;;;6261762;28;20044;-69
2023/11/17 04:59:32;;;;;;;;;;;;;;;;;;6261981;28;20550;-69
2023/11/17 05:02:34;;;;;;;3.25;2.72;;;;;;;;;;6260835;28;20543;-69
2023/11/17 05:05:37;;;;;;;4.70;2.25;;;;;;;;;;6260916;28;20631;-69
2023/11/17 05:08:39;;;;;;;3.22;2.40;;;;;;;;;;6259063;28;20045;-70
2023/11/17 05:11:41;;;;;;;7.95;5.50;;;;;;;;;;6252155;28;20052;-71
2023/11/17 05:14:43;;;;;;;8.32;5.82;;;;;;;;;;6261629;28;20040;-68
2023/11/17 05:17:48;;;;;;;6.00;3.85;;;;;;;;;;6257962;28;20049;-69
2023/11/17 05:20:50;;;;;;;8.50;4.28;;;;;;;;;;6255182;28;20049;-67
2023/11/17 05:23:53;;;;;;;12.63;6.82;;;;;;;;;;6260294;28;20052;-68
2023/11/17 05:26:55;;;;;;;13.98;8.43;;;;;;;;;;6254122;28;20046;-67
2023/11/17 05:29:58;;;;;;;18.35;10.63;;;;;;;;;;6257653;28;20072;-67
2023/11/17 05:33:01;;;;;;;11.23;8.48;;;;;;;;;;6260137;28;20098;-67
2023/11/17 05:36:04;;;;;;;15.20;11.60;;;;;;;;;;6259435;28;20843;-67
2023/11/17 05:39:06;;;;;;;8.98;6.53;;;;;;;;;;6258568;28;20087;-67
2023/11/17 05:42:08;;;;;;;6.97;4.60;;;;;;;;;;6260257;28;20049;-68
2023/11/17 05:45:14;;;;;;;6.18;4.10;;;;;;;;;;6257760;28;20072;-67
2023/11/17 05:48:17;;;;;;;5.57;3.80;;;;;;;;;;6248722;28;20122;-67
2023/11/17 05:51:19;;;;;;;6.20;4.07;;;;;;;;;;6259520;28;20059;-68
2023/11/17 05:54:21;;;;;;;4.72;3.53;;;;;;;;;;6262804;28;20078;-67
2023/11/17 05:57:23;;;;;;;5.78;4.10;;;;;;;;;;6257002;28;20048;-67
2023/11/17 06:00:27;;;;;;;6.22;4.32;;;;;;;;;;6263181;28;20045;-67
2023/11/17 06:03:29;;;;;;;5.75;4.20;;;;;;;;;;6257525;28;20044;-67
2023/11/17 06:06:32;;;;;;;4.97;3.33;;;;;;;;;;6254574;28;20052;-67
2023/11/17 06:09:35;;;;;;;3.70;2.03;;;;;;;;;;6258423;28;20048;-68
2023/11/17 06:12:38;;;;;;;3.55;2.15;;;;;;;;;;6263192;28;20048;-75
2023/11/17 06:15:40;;;;;;;5.43;2.83;;;;;;;;;;6272657;28;20041;-75
2023/11/17 06:18:42;;;;;;;3.65;2.55;;;;;;;;;;6259209;28;20537;-77
2023/11/17 06:21:46;;;;;;;4.47;3.28;;;;;;;;;;6242499;28;20037;-76
2023/11/17 06:24:48;;;;;;;6.05;3.40;;;;;;;;;;6260329;28;20036;-77
2023/11/17 06:27:52;;;;;;;4.05;2.20;;;;;;;;;;6277547;28;20052;-77
2023/11/17 06:30:56;;;;;;;4.82;2.95;;;;;;;;;;6226793;28;20045;-77
2023/11/17 06:33:59;;;;;;;3.58;2.63;;;;;;;;;;6262773;28;20080;-78
2023/11/17 06:37:02;;;;;;;3.25;2.25;;;;;;;;;;6258021;28;20048;-66
2023/11/17 06:40:09;;;;;;;3.53;2.17;;;;;;;;;;6258650;28;20041;-69
2023/11/17 06:43:12;;;;;;;3.97;2.28;;;;;;;;;;6254320;28;20166;-68
2023/11/17 06:46:14;;;;;;;4.68;4.28;;;;;;;;;;6255928;28;20424;-68
2023/11/17 06:49:20;;;;;;;4.15;2.60;;;;;;;;;;6256873;28;20053;-71
2023/11/17 06:52:24;;;;;;;5.13;3.38;;;;;;;;;;6242254;28;20516;-73
2023/11/17 06:55:27;;;;;;;3.58;2.17;;;;;;;;;;6261919;28;20056;-68
2023/11/17 06:58:30;;;;;;;5.57;3.97;;;;;;;;;;6262721;28;20077;-68
2023/11/17 07:01:35;;;;;;;10.75;6.28;;;;;;;;;;6257974;28;20076;-67
2023/11/17 07:04:38;;;;;;;2.88;2.25;;;;;;;;;;6260643;28;20049;-67
2023/11/17 07:07:41;;;;;;;3.83;2.70;;;;;;;;;;6256674;28;20056;-66
2023/11/17 07:10:47;;;;;;;3.30;1.50;;;;;;;;;;6253748;28;20079;-74
2023/11/17 07:13:52;;;;;;;3.10;2.13;;;;;;;;;;6259351;28;20045;-70
2023/11/17 07:16:54;;;;;;;3.45;3.15;;;;;;;;;;6263140;28;20048;-68
2023/11/17 07:19:56;;;;;;;4.05;2.38;;;;;;;;;;6260643;28;20052;-66
2023/11/17 07:22:58;;;;;;;6.18;5.75;;;;;;;;;;6256187;28;20543;-67
2023/11/17 07:26:03;;;;;;;5.28;2.38;;;;;;;;;;6258244;28;20083;-68
2023/11/17 07:29:05;;;;;;;4.28;3.35;;;;;;;;;;6256578;28;20080;-69
2023/11/17 07:32:07;;;;;;;4.13;2.40;;;;;;;;;;6257178;28;20041;-69
2023/11/17 07:35:11;;;;;;;12.13;6.72;;;;;;;;;;6258748;28;20051;-68
2023/11/17 07:38:13;;;;;;;80.22;33.20;;;;;;;;;;6260135;28;20605;-68
2023/11/17 07:41:15;;;;;;;5.63;4.25;;;;;;;;;;6252155;28;20826;-67
2023/11/17 07:44:17;;;;;;;3.47;1.92;;;;;;;;;;6254903;28;20077;-68
2023/11/17 07:47:23;;;;;;;7.15;2.53;;;;;;;;;;6259668;28;20053;-68
2023/11/17 07:50:25;;;;;;;4.45;3.75;;;;;;;;;;6259845;28;20045;-67
2023/11/17 07:53:28;;;;;;;4.53;1.40;;;;;;;;;;6259819;28;20056;-67
2023/11/17 07:56:31;;;;;;;6.13;2.22;;;;;;;;;;6259487;28;20049;-68
2023/11/17 07:59:33;;;;;;;3.38;2.22;;;;;;;;;;6257703;28;20076;-68
2023/11/17 08:02:35;;;;;;;4.80;1.90;;;;;;;;;;6256416;28;20045;-68
2023/11/17 08:05:37;;;;;;;8.13;3.92;;;;;;;;;;6259859;28;20102;-68
2023/11/17 08:08:40;;;;;;;2.70;2.00;;;;;;;;;;6258996;28;20039;-68
2023/11/17 08:11:43;;;;;;;4.00;2.58;;;;;;;;;;6261319;28;20155;-68
2023/11/17 08:14:45;;;;;;;4.30;1.92;;;;;;;;;;6256255;28;20045;-72
2023/11/17 08:17:48;;;;;;;4.13;2.22;;;;;;;;;;6257959;28;20064;-69
2023/11/17 08:20:52;;;;;;;6.70;3.88;;;;;;;;;;6260950;28;20048;-68
2023/11/17 08:23:54;;;;;;;10.57;6.78;;;;;;;;;;6262508;28;20405;-68
2023/11/17 08:26:57;;;;;;;12.45;7.55;;;;;;;;;;6260090;28;20053;-68
2023/11/17 08:30:00;;;;;;;8.40;4.43;;;;;;;;;;6257034;28;20043;-70
2023/11/17 08:33:03;;;;;;;6.15;3.13;;;;;;;;;;6261842;28;20127;-70
2023/11/17 08:36:09;;;;;;;8.20;3.47;;;;;;;;;;6258393;28;20079;-69
2023/11/17 08:39:24;;;;;;;;;;;;;;;;;;6261984;28;20049;-69
2023/11/17 08:42:27;;;;;;;6.30;3.60;;;;;;;;;;6257669;28;19920;-68
2023/11/17 08:45:30;;;;;;;5.38;1.95;;;;;;;;;;6260028;28;20878;-68
2023/11/17 08:48:35;;;;;;;4.05;2.30;;;;;;;;;;6256880;28;20057;-67
2023/11/17 08:51:37;;;;;;;4.40;1.88;;;;;;;;;;6258945;28;20571;-67
2023/11/17 08:54:40;;;;;;;3.92;2.00;;;;;;;;;;6259814;28;20056;-68
2023/11/17 08:57:44;;;;;;;2.97;1.77;;;;;;;;;;6270702;28;20075;-67
2023/11/17 09:00:49;;;;;;;4.18;1.77;;;;;;;;;;6276712;28;20131;-67
2023/11/17 09:03:55;;;;;;;3.38;2.15;;;;;;;;;;6254411;28;20080;-68
2023/11/17 09:06:59;;;;;;;6.13;2.15;;;;;;;;;;6259731;28;20037;-68
2023/11/17 09:10:01;;;;;;;3.85;2.53;;;;;;;;;;6257517;28;20057;-68
2023/11/17 09:13:08;;;;;;;4.88;2.15;;;;;;;;;;6259536;28;20045;-68
2023/11/17 09:16:10;;;;;;;7.00;3.67;;;;;;;;;;6254839;28;20053;-67
2023/11/17 09:19:13;;;;;;;5.75;1.88;;;;;;;;;;6259102;28;20088;-69
2023/11/17 09:22:15;;;;;;;3.58;1.75;;;;;;;;;;6256126;28;20056;-72
2023/11/17 09:25:18;;;;;;;6.03;5.43;;;;;;;;;;6254754;28;20139;-70
2023/11/17 09:28:20;;;;;;;4.25;2.25;;;;;;;;;;6253480;28;20052;-70
2023/11/17 09:31:23;;;;;;;7.80;3.95;;;;;;;;;;6257520;28;20049;-70
2023/11/17 09:34:25;;;;;;;3.00;1.65;;;;;;;;;;6255347;28;20056;-70
2023/11/17 09:37:28;;;;;;;3.72;1.63;;;;;;;;;;6258708;28;20052;-68
2023/11/17 09:40:36;;;;;;;7.80;2.40;;;;;;;;;;6257965;28;20045;-70
2023/11/17 09:43:43;;;;;;;3.08;1.85;;;;;;;;;;6251870;28;20045;-70
2023/11/17 09:47:07;;;;;;;6.40;3.25;;;;;;;;;;6254668;28;20090;-70
2023/11/17 09:50:10;;;;;;;5.60;2.33;;;;;;;;;;6256582;28;20124;-69
2023/11/17 09:53:14;;;;;;;3.92;1.15;;;;;;;;;;6258916;28;20044;-69
2023/11/17 09:56:17;;;;;;;3.25;1.67;;;;;;;;;;6253314;28;20041;-70
2023/11/17 09:59:20;;;;;;;3.33;1.90;;;;;;;;;;6255767;28;20900;-70
2023/11/17 10:02:22;;;;;;;3.05;2.17;;;;;;;;;;6278727;28;20819;-69
2023/11/17 10:05:26;;;;;;;3.47;2.30;;;;;;;;;;6258399;28;20049;-69
2023/11/17 10:08:29;;;;;;;3.30;1.48;;;;;;;;;;6250424;28;20049;-70
2023/11/17 10:11:31;;;;;;;2.20;1.38;;;;;;;;;;6266706;28;20045;-70
2023/11/17 10:14:34;;;;;;;2.10;1.05;;;;;;;;;;6255285;28;20226;-69
2023/11/17 10:17:37;;;;;;;2.90;1.20;;;;;;;;;;6253891;28;20052;-69
2023/11/17 10:20:39;;;;;;;2.35;1.45;;;;;;;;;;6252198;28;20053;-69
2023/11/17 10:23:42;;;;;;;2.78;1.10;;;;;;;;;;6260173;28;20048;-69
2023/11/17 10:26:47;;;;;;;2.72;1.35;;;;;;;;;;6254901;28;20049;-69
2023/11/17 10:29:49;;;;;;;1.88;1.00;;;;;;;;;;6260128;28;20087;-70
2023/11/17 10:32:57;;;;;;;2.38;1.33;;;;;;;;;;6260602;28;20051;-70
2023/11/17 10:36:12;;;;;;;2.20;1.27;;;;;;;;;;6259250;28;20535;-71
2023/11/17 10:39:18;;;;;;;4.35;1.33;;;;;;;;;;6260290;28;20041;-71
2023/11/17 10:42:22;;;;;;;3.53;1.20;;;;;;;;;;6259656;28;20098;-71
2023/11/17 10:45:24;;;;;;;3.20;2.22;;;;;;;;;;6257371;28;20057;-71
2023/11/17 10:48:26;;;;;;;5.05;1.90;;;;;;;;;;6258178;28;20048;-71
2023/11/17 10:51:28;;;;;;;4.78;2.13;;;;;;;;;;6260030;28;20045;-71
2023/11/17 10:54:33;;;;;;;4.05;2.10;;;;;;;;;;6261125;28;20047;-71
2023/11/17 10:57:36;;;;;;;5.60;2.65;;;;;;;;;;6260944;28;20136;-71
2023/11/17 11:00:38;;;;;;;3.83;2.25;;;;;;;;;;6274679;28;20037;-71
2023/11/17 11:03:40;;;;;;;5.65;2.60;;;;;;;;;;6287407;28;20041;-70
2023/11/17 11:06:43;;;;;;;6.47;2.67;;;;;;;;;;6257610;28;20056;-71
2023/11/17 11:09:45;;;;;;;4.45;2.45;;;;;;;;;;6258581;28;20096;-70
2023/11/17 11:12:51;;;;;;;5.38;4.65;;;;;;;;;;6258822;28;20794;-71
2023/11/17 11:16:07;;;;;;;3.78;2.22;;;;;;;;;;6258687;28;20037;-70
2023/11/17 11:19:13;;;;;;;4.57;3.15;;;;;;;;;;6248430;28;20542;-70
2023/11/17 11:22:26;;;;;;;3.05;1.92;;;;;;;;;;6252981;28;20802;-70
2023/11/17 11:25:29;;;;;;;3.90;2.08;;;;;;;;;;6258244;28;20829;-70
2023/11/17 11:28:32;;;;;;;4.07;1.92;;;;;;;;;;6256491;28;20045;-70
2023/11/17 11:31:34;;;;;;;5.30;2.00;;;;;;;;;;6259321;28;20152;-70
2023/11/17 11:34:37;;;;;;;4.03;1.70;;;;;;;;;;6261299;28;20048;-70
2023/11/17 11:37:39;;;;;;;2.90;1.45;;;;;;;;;;6261979;28;20049;-70
2023/11/17 11:40:43;;;;;;;4.60;1.80;;;;;;;;;;6262364;28;20049;-70
2023/11/17 11:43:46;;;;;;;2.35;1.23;;;;;;;;;;6262156;28;20090;-70
2023/11/17 11:46:50;;;;;;;4.13;3.72;;;;;;;;;;6261043;28;20673;-71
2023/11/17 11:49:53;;;;;;;3.50;1.33;;;;;;;;;;6253940;28;20045;-72
2023/11/17 11:53:17;;;;;;;3.70;1.15;;;;;;;;;;6261067;28;20131;-72
2023/11/17 11:56:21;;;;;;;2.83;1.40;;;;;;;;;;6257144;28;20057;-72
2023/11/17 11:59:24;;;;;;;2.47;1.92;;;;;;;;;;6254061;28;20782;-72
2023/11/17 12:02:30;;;;;;;2.63;0.88;;;;;;;;;;6259734;28;20113;-72
2023/11/17 12:05:36;;;;;;;2.78;1.88;;;;;;;;;;6258129;28;20083;-71
2023/11/17 12:08:51;;;;;;;4.60;4.20;;;;;;;;;;6256117;28;20837;-72
2023/11/17 12:11:54;;;;;;;2.65;1.00;;;;;;;;;;6258150;28;20060;-71
2023/11/17 12:14:58;;;;;;;2.30;1.52;;;;;;;;;;6262682;28;20098;-66
2023/11/17 12:18:01;;;;;;;2.20;1.00;;;;;;;;;;6260070;28;20045;-66
2023/11/17 12:21:24;;;;;;;2.53;1.40;;;;;;;;;;6256074;28;20564;-65
2023/11/17 12:24:33;;;;;;;3.65;3.08;;;;;;;;;;6254007;28;20539;-65
2023/11/17 12:27:37;;;;;;;2.45;1.25;;;;;;;;;;6258124;28;20064;-68
2023/11/17 12:30:40;;;;;;;3.63;1.83;;;;;;;;;;6239087;28;20048;-68
2023/11/17 12:33:43;;;;;;;3.63;1.10;;;;;;;;;;6259349;28;20053;-70
2023/11/17 12:36:46;;;;;;;2.95;1.65;;;;;;;;;;6255358;28;20045;-70
2023/11/17 12:39:48;;;;;;;2.72;1.35;;;;;;;;;;6257143;28;20134;-69
2023/11/17 12:42:50;;;;;;;2.63;1.55;;;;;;;;;;6255633;28;20056;-70
2023/11/17 12:45:52;;;;;;;2.90;2.55;;;;;;;;;;6256831;28;20060;-70
2023/11/17 12:48:58;;;;;;;2.38;1.55;;;;;;;;;;6259042;28;20095;-70
2023/11/17 12:52:06;;;;;;;2.85;0.95;;;;;;;;;;6251942;28;20202;-70
2023/11/17 12:55:09;;;;;;;4.20;1.38;;;;;;;;;;6252226;28;20168;-70
2023/11/17 12:58:12;;;;;;;6.15;1.98;;;;;;;;;;6257077;28;20048;-70
2023/11/17 13:01:16;;;;;;;3.10;1.27;;;;;;;;;;6253114;28;20053;-69
2023/11/17 13:04:20;;;;;;;3.53;1.83;;;;;;;;;;6256619;28;20048;-69
2023/11/17 13:07:22;;;;;;;5.13;4.72;;;;;;;;;;6253914;28;20653;-70
2023/11/17 13:10:25;;;;;;;4.32;3.92;;;;;;;;;;6258611;28;20424;-69
2023/11/17 13:13:27;;;;;;;3.33;1.52;;;;;;;;;;6258991;28;20204;-68
2023/11/17 13:16:30;;;;;;;2.83;1.42;;;;;;;;;;6257744;28;20139;-70
2023/11/17 13:19:35;;;;;;;2.08;1.25;;;;;;;;;;6259030;28;20545;-69
2023/11/17 13:22:37;;;;;;;2.63;1.85;;;;;;;;;;6257316;28;20057;-70
2023/11/17 13:25:59;;;;;;;3.95;1.77;;;;;;;;;;6248224;28;20045;-69
2023/11/17 13:29:10;;;;;;;3.17;2.15;;;;;;;;;;6249718;28;20112;-70
2023/11/17 13:32:13;;;;;;;3.08;1.40;;;;;;;;;;6255495;28;20594;-69
2023/11/17 13:35:19;;;;;;;5.38;2.13;;;;;;;;;;6254984;28;20059;-69
2023/11/17 13:38:21;;;;;;;4.55;2.33;;;;;;;;;;6256706;28;20068;-69
2023/11/17 13:41:26;;;;;;;8.57;1.27;;;;;;;;;;6253504;28;20044;-69
2023/11/17 13:44:30;;;;;;;5.30;2.20;;;;;;;;;;6259847;28;20041;-70
2023/11/17 13:47:33;;;;;;;9.10;4.78;;;;;;;;;;6255043;28;20783;-70
2023/11/17 13:50:36;;;;;;;3.58;1.73;;;;;;;;;;6259752;28;20048;-70
2023/11/17 13:53:38;;;;;;;4.43;1.88;;;;;;;;;;6258047;28;20044;-70
2023/11/17 13:56:48;;;;;;;5.95;2.30;;;;;;;;;;6263046;28;20049;-70
2023/11/17 13:59:53;;;;;;;4.43;2.25;;;;;;;;;;6261273;28;20043;-70
2023/11/17 14:02:57;;;;;;;3.83;2.17;;;;;;;;;;6259657;28;20210;-69
2023/11/17 14:05:59;;;;;;;4.57;1.80;;;;;;;;;;6290133;28;20041;-70
2023/11/17 14:09:01;;;;;;;4.28;1.80;;;;;;;;;;6271483;28;20041;-70
2023/11/17 14:12:04;;;;;;;6.38;2.88;;;;;;;;;;6260164;28;20041;-70
2023/11/17 14:15:10;;;;;;;6.05;2.55;;;;;;;;;;6254317;28;20060;-70
2023/11/17 14:18:13;;;;;;;4.47;2.58;;;;;;;;;;6252680;28;20543;-70
2023/11/17 14:21:19;;;;;;;3.88;2.03;;;;;;;;;;6258785;28;20045;-70
2023/11/17 14:24:21;;;;;;;4.03;2.35;;;;;;;;;;6251441;28;20048;-69
2023/11/17 14:27:25;;;;;;;5.47;1.70;;;;;;;;;;6259312;28;20064;-70
2023/11/17 14:30:27;;;;;;;5.40;2.55;;;;;;;;;;6258833;28;20135;-70
2023/11/17 14:33:32;;;;;;;5.53;3.45;;;;;;;;;;6256922;28;20132;-69
2023/11/17 14:36:35;;;;;;;6.03;2.75;;;;;;;;;;6255697;28;20063;-70
2023/11/17 14:39:37;;;;;;;5.13;2.70;;;;;;;;;;6258944;28;20048;-70
2023/11/17 14:42:39;;;;;;;5.30;3.38;;;;;;;;;;6258586;28;20044;-70
2023/11/17 14:45:41;;;;;;;11.70;6.07;;;;;;;;;;6259690;28;20045;-70
2023/11/17 14:48:43;;;;;;;7.40;3.40;;;;;;;;;;6248394;28;20048;-70
2023/11/17 14:51:46;;;;;;;5.70;3.33;;;;;;;;;;6259545;28;20755;-70
2023/11/17 14:54:48;;;;;;;4.97;2.25;;;;;;;;;;6258335;28;20618;-70
2023/11/17 14:57:50;;;;;;;5.22;2.78;;;;;;;;;;6257618;28;20064;-69
2023/11/17 15:00:52;;;;;;;5.30;3.40;;;;;;;;;;6257789;28;20845;-70
2023/11/17 15:03:54;;;;;;;7.88;3.50;;;;;;;;;;6254715;28;20057;-64
2023/11/17 15:06:59;;;;;;;7.78;3.60;;;;;;;;;;6256746;28;20519;-64
2023/11/17 15:10:03;;;;;;;;;;;;;;;;;;6256085;28;20055;-70
2023/11/17 15:13:07;;;;;;;16.50;14.77;;;;;;;;;;6261480;28;20740;-67
2023/11/17 15:16:13;;;;;;;8.85;6.30;;;;;;;;;;6256268;28;20057;-69
2023/11/17 15:19:16;;;;;;;7.82;5.05;;;;;;;;;;6257286;28;20048;-73
2023/11/17 15:22:20;;;;;;;10.88;4.95;;;;;;;;;;6259548;28;20550;-73
2023/11/17 15:25:28;;;;;;;11.25;4.80;;;;;;;;;;6261705;28;20120;-73
2023/11/17 15:28:35;;;;;;;7.82;4.88;;;;;;;;;;6254907;28;20105;-73
2023/11/17 15:31:40;;;;;;;19.23;14.20;;;;;;;;;;6258585;28;20702;-73
2023/11/17 15:34:42;;;;;;;15.38;12.60;;;;;;;;;;6257895;28;20266;-74
2023/11/17 15:37:46;;;;;;;10.88;8.52;;;;;;;;;;6243277;28;20459;-73
2023/11/17 15:40:48;;;;;;;9.20;5.15;;;;;;;;;;6261744;28;20085;-74
2023/11/17 15:43:50;;;;;;;8.73;4.35;;;;;;;;;;6230639;28;20048;-73
2023/11/17 15:46:53;;;;;;;7.47;4.07;;;;;;;;;;6262819;28;20049;-71
2023/11/17 15:49:55;;;;;;;8.02;5.30;;;;;;;;;;6263580;28;20435;-70
2023/11/17 15:52:57;;;;;;;12.45;6.90;;;;;;;;;;6258975;28;20045;-71
2023/11/17 15:56:00;;;;;;;10.20;5.35;;;;;;;;;;6264112;28;20037;-71
2023/11/17 15:59:04;;;;;;;12.65;6.35;;;;;;;;;;6263534;28;20523;-69
2023/11/17 16:02:07;;;;;;;8.07;5.05;;;;;;;;;;6263518;28;20048;-70
2023/11/17 16:05:15;;;;;;;9.20;6.13;;;;;;;;;;6254511;28;20051;-69
2023/11/17 16:08:17;;;;;;;11.05;7.18;;;;;;;;;;6260592;28;20059;-68
2023/11/17 16:11:19;;;;;;;7.20;4.47;;;;;;;;;;6260758;28;20063;-69
2023/11/17 16:14:23;;;;;;;6.07;4.03;;;;;;;;;;6261307;28;20207;-69
2023/11/17 16:17:27;;;;;;;7.55;3.47;;;;;;;;;;6260268;28;20053;-69
2023/11/17 16:20:31;;;;;;;5.35;3.28;;;;;;;;;;6256259;28;20057;-70
2023/11/17 16:23:35;;;;;;;8.07;3.40;;;;;;;;;;6258420;28;20140;-70
2023/11/17 16:26:38;;;;;;;6.10;3.08;;;;;;;;;;6261494;28;20064;-70
2023/11/17 16:29:42;;;;;;;13.70;3.67;;;;;;;;;;6255714;28;20088;-71
2023/11/17 16:32:49;;;;;;;6.90;3.30;;;;;;;;;;6256747;28;20520;-69
2023/11/17 16:35:55;;;;;;;5.93;3.00;;;;;;;;;;6255072;28;20048;-68
2023/11/17 16:38:57;;;;;;;24.08;14.52;;;;;;;;;;6260904;28;20779;-68
2023/11/17 16:41:59;;;;;;;15.13;10.00;;;;;;;;;;6261706;28;20056;-68
2023/11/17 16:45:03;;;;;;;20.95;10.10;;;;;;;;;;6260220;28;20041;-68
2023/11/17 16:48:06;;;;;;;15.23;8.45;;;;;;;;;;6256658;28;20052;-68
2023/11/17 16:51:08;;;;;;;8.63;6.45;;;;;;;;;;6258979;28;20101;-68
2023/11/17 16:54:10;;;;;;;13.73;8.77;;;;;;;;;;6259156;28;20052;-68
2023/11/17 16:57:13;;;;;;;18.52;10.63;;;;;;;;;;6258632;28;20057;-68
2023/11/17 17:00:16;;;;;;;13.07;9.40;;;;;;;;;;6256974;28;20506;-68
2023/11/17 17:03:21;;;;;;;16.15;10.52;;;;;;;;;;6259576;28;20055;-68
2023/11/17 17:06:25;;;;;;;6.70;4.00;;;;;;;;;;6259871;28;20064;-67
2023/11/17 17:09:27;;;;;;;12.43;6.85;;;;;;;;;;6264488;28;20036;-68
2023/11/17 17:12:29;;;;;;;16.63;7.97;;;;;;;;;;6256433;28;20656;-68
2023/11/17 17:15:34;;;;;;;21.88;15.73;;;;;;;;;;6255820;28;20647;-68
2023/11/17 17:18:36;;;;;;;13.68;6.60;;;;;;;;;;6251826;28;20036;-68
2023/11/17 17:21:38;;;;;;;16.67;7.20;;;;;;;;;;6256801;28;20053;-68
2023/11/17 17:24:40;;;;;;;17.45;8.70;;;;;;;;;;6255028;28;20139;-68
2023/11/17 17:27:45;;;;;;;6.60;4.35;;;;;;;;;;6253574;28;20121;-68
2023/11/17 17:30:47;;;;;;;17.05;10.52;;;;;;;;;;6255165;28;20923;-68
2023/11/17 17:33:50;;;;;;;12.80;9.23;;;;;;;;;;6257080;28;20041;-68
2023/11/17 17:36:53;;;;;;;11.25;7.55;;;;;;;;;;6286151;28;20060;-68
2023/11/17 17:39:55;;;;;;;8.48;6.53;;;;;;;;;;6261112;28;20451;-69
2023/11/17 17:42:57;;;;;;;9.43;6.43;;;;;;;;;;6259037;28;20036;-70
2023/11/17 17:45:59;;;;;;;27.55;16.50;;;;;;;;;;6279630;28;20049;-73
2023/11/17 17:49:02;;;;;;;9.20;5.53;;;;;;;;;;6259565;28;20528;-72
2023/11/17 17:52:06;;;;;;;8.05;5.78;;;;;;;;;;6260634;28;20543;-73
2023/11/17 17:55:08;;;;;;;9.48;6.30;;;;;;;;;;6259125;28;20045;-73
2023/11/17 17:58:11;;;;;;;9.68;5.78;;;;;;;;;;6259572;28;20057;-73
2023/11/17 18:01:13;;;;;;;13.20;8.05;;;;;;;;;;6258763;28;20091;-71
2023/11/17 18:04:15;;;;;;;9.70;4.80;;;;;;;;;;6256291;28;20077;-69
2023/11/17 18:07:19;;;;;;;10.77;6.13;;;;;;;;;;6250323;28;20060;-70
2023/11/17 18:10:21;;;;;;;10.10;7.28;;;;;;;;;;6258165;28;20670;-74
2023/11/17 18:13:23;;;;;;;10.35;6.95;;;;;;;;;;6259522;28;20076;-73
2023/11/17 18:16:25;;;;;;;7.60;5.63;;;;;;;;;;6260081;28;20072;-72